createdAt,value
2023-01-17T05:05:30.850Z,98116.81
2023-01-17T05:08:33.390Z,98116.81
2023-01-17T05:11:35.481Z,98117.22
2023-01-17T05:14:40.234Z,98109.84
2023-01-17T05:17:42.338Z,98116.59
2023-01-17T05:20:45.033Z,98120.97
2023-01-17T05:23:47.630Z,98123.00
2023-01-17T05:26:54.550Z,98123.94
2023-01-17T05:29:56.868Z,98124.56
2023-01-17T05:32:59.694Z,98125.19
2023-01-17T05:36:01.835Z,98129.72
2023-01-17T05:39:04.216Z,98132.53
2023-01-17T05:42:06.378Z,98133.34
2023-01-17T05:45:09.885Z,98137.75
2023-01-17T05:48:11.977Z,98137.75
2023-01-17T05:51:14.394Z,98150.31
2023-01-17T05:54:16.829Z,98155.31
2023-01-17T05:57:19.549Z,98165.63
2023-01-17T06:00:23.220Z,98164.09
2023-01-17T06:03:25.877Z,98166.88
2023-01-17T06:06:27.970Z,98172.03
2023-01-17T06:09:30.323Z,98184.44
2023-01-17T06:12:32.468Z,98184.94
2023-01-17T06:15:36.214Z,98185.59
2023-01-17T06:18:38.327Z,98186.03
2023-01-17T06:21:40.687Z,98187.16
2023-01-17T06:24:42.753Z,98192.63
2023-01-17T06:27:45.913Z,98189.00
2023-01-17T06:30:48.810Z,98191.72
2023-01-17T06:33:51.300Z,98188.25
2023-01-17T06:36:56.871Z,98192.97
2023-01-17T06:39:59.232Z,98198.59
2023-01-17T06:43:02.381Z,98211.63
2023-01-17T06:46:05.064Z,98223.25
2023-01-17T06:49:07.182Z,98233.13
2023-01-17T06:52:09.590Z,98229.06
2023-01-17T06:55:11.721Z,98240.53
2023-01-17T06:58:14.114Z,98255.09
2023-01-17T07:01:18.870Z,98251.03
2023-01-17T07:04:21.650Z,98259.97
2023-01-17T07:07:24.840Z,98261.22
2023-01-17T07:10:27.279Z,98260.28
2023-01-17T07:13:31.000Z,98273.31
2023-01-17T07:19:50.241Z,98286.03
2023-01-17T07:22:52.523Z,98284.44
2023-01-17T07:26:00.396Z,98289.47
2023-01-17T07:29:06.682Z,98289.47
2023-01-17T07:32:10.815Z,98301.69
2023-01-17T07:35:13.198Z,98302.16
2023-01-17T07:38:20.110Z,98309.50
2023-01-17T07:41:22.578Z,98318.34
2023-01-17T07:44:24.685Z,98331.31
2023-01-17T07:47:27.021Z,98337.72
2023-01-17T07:50:29.086Z,98348.34
2023-01-17T07:53:33.425Z,98351.34
2023-01-17T07:56:35.615Z,98358.69
2023-01-17T07:59:38.034Z,98369.66
2023-01-17T08:02:40.404Z,98381.66
2023-01-17T08:05:52.517Z,98376.00
2023-01-17T08:08:56.465Z,98375.50
2023-01-17T08:11:59.515Z,98382.72
2023-01-17T08:15:01.872Z,98381.06
2023-01-17T08:18:04.340Z,98386.81
2023-01-17T08:21:13.544Z,98387.47
2023-01-17T08:24:15.984Z,98391.03
2023-01-17T08:27:18.073Z,98400.28
2023-01-17T08:30:20.485Z,98410.81
2023-01-17T08:33:22.585Z,98403.91
2023-01-17T08:36:25.825Z,98409.31
2023-01-17T08:39:28.649Z,98406.38
2023-01-17T08:42:37.246Z,98413.09
2023-01-17T08:45:43.471Z,98420.31
2023-01-17T08:48:46.125Z,98419.38
2023-01-17T08:51:48.196Z,98432.53
2023-01-17T08:54:51.463Z,98438.63
2023-01-17T08:57:53.606Z,98445.75
2023-01-17T09:01:01.013Z,98443.78
2023-01-17T09:04:03.359Z,98433.97
2023-01-17T09:07:07.387Z,98431.13
2023-01-17T09:10:10.179Z,98432.19
2023-01-17T09:13:12.581Z,98419.72
2023-01-17T09:16:14.745Z,98433.25
2023-01-17T09:19:17.207Z,98439.06
2023-01-17T09:22:19.322Z,98440.59
2023-01-17T09:25:22.204Z,98436.66
2023-01-17T09:28:25.768Z,98436.09
2023-01-17T09:31:28.553Z,98438.16
2023-01-17T09:34:30.737Z,98446.31
2023-01-17T09:37:33.725Z,98456.06
2023-01-17T09:40:38.728Z,98465.78
2023-01-17T09:43:52.546Z,98462.81
2023-01-17T09:47:01.549Z,98477.72
2023-01-17T09:50:25.727Z,98490.81
2023-01-17T09:53:31.478Z,98487.66
2023-01-17T09:56:46.629Z,98497.72
2023-01-17T10:00:03.599Z,98498.50
2023-01-17T10:03:22.105Z,98488.72
2023-01-17T10:06:49.367Z,98495.84
2023-01-17T10:10:18.481Z,98505.63
2023-01-17T10:13:39.270Z,98511.44
2023-01-17T10:16:55.015Z,98506.00
2023-01-17T10:20:26.263Z,98506.47
2023-01-17T10:23:37.231Z,98515.19
2023-01-17T10:26:39.735Z,98505.91
2023-01-17T10:29:45.778Z,98505.75
2023-01-17T10:32:49.829Z,98514.59
2023-01-17T10:35:56.954Z,98511.59
2023-01-17T10:39:04.710Z,98509.72
2023-01-17T10:42:17.190Z,98491.00
2023-01-17T10:45:28.370Z,98487.84
2023-01-17T10:48:39.471Z,98475.47
2023-01-17T10:51:49.915Z,98473.25
2023-01-17T10:55:10.553Z,98466.03
2023-01-17T10:58:13.576Z,98470.13
2023-01-17T11:01:20.579Z,98465.72
2023-01-17T11:04:41.468Z,98458.50
2023-01-17T11:08:06.418Z,98455.53
2023-01-17T11:11:09.190Z,98442.31
2023-01-17T11:14:21.986Z,98433.03
2023-01-17T11:17:26.350Z,98437.13
2023-01-17T11:20:36.960Z,98433.66
2023-01-17T11:23:42.631Z,98429.56
2023-01-17T11:26:49.527Z,98428.63
2023-01-17T11:30:18.148Z,98418.09
2023-01-17T11:33:46.879Z,98414.00
2023-01-17T11:36:50.216Z,98402.84
2023-01-17T11:40:06.994Z,98407.69
2023-01-17T11:43:12.596Z,98402.84
2023-01-17T11:46:17.907Z,98394.63
2023-01-17T11:49:25.388Z,98393.37
2023-01-17T11:52:37.500Z,98399.97
2023-01-17T11:55:40.624Z,98392.09
2023-01-17T11:58:43.493Z,98409.72
2023-01-17T12:01:58.329Z,98411.44
2023-01-17T12:05:23.486Z,98431.13
2023-01-17T12:08:37.441Z,98427.81
2023-01-17T12:12:15.946Z,98436.13
2023-01-17T12:15:33.422Z,98435.00
2023-01-17T12:18:51.749Z,98436.22
2023-01-17T12:22:41.385Z,98431.37
2023-01-17T12:26:00.812Z,98424.88
2023-01-17T12:29:33.487Z,98423.47
2023-01-17T12:33:12.037Z,98419.00
2023-01-17T12:36:43.834Z,98421.56
2023-01-17T12:39:55.005Z,98426.47
2023-01-17T12:43:06.813Z,98425.72
2023-01-17T12:46:24.010Z,98426.62
2023-01-17T12:49:49.369Z,98429.03
2023-01-17T12:52:57.855Z,98426.84
2023-01-17T12:56:10.196Z,98421.63
2023-01-17T12:59:24.755Z,98420.25
2023-01-17T13:02:52.091Z,98415.37
2023-01-17T13:05:57.391Z,98416.34
2023-01-17T13:09:03.794Z,98409.53
2023-01-17T13:12:12.887Z,98404.84
2023-01-17T13:15:28.500Z,98413.44
2023-01-17T13:18:33.198Z,98416.16
2023-01-17T13:21:35.677Z,98424.38
2023-01-17T13:24:56.018Z,98421.25
2023-01-17T13:28:22.981Z,98426.62
2023-01-17T13:31:44.707Z,98429.25
2023-01-17T13:35:05.765Z,98431.31
2023-01-17T13:38:17.305Z,98414.31
2023-01-17T13:41:34.448Z,98414.47
2023-01-17T13:44:37.439Z,98403.97
2023-01-17T13:47:41.325Z,98399.91
2023-01-17T13:51:10.037Z,98399.91
2023-01-17T13:54:31.685Z,98394.81
2023-01-17T13:57:43.736Z,98390.13
2023-01-17T14:00:49.502Z,98382.56
2023-01-17T14:03:52.566Z,98373.00
2023-01-17T14:06:59.344Z,98365.62
2023-01-17T14:10:15.682Z,98361.19
2023-01-17T14:13:36.225Z,98343.75
2023-01-17T14:16:39.270Z,98341.13
2023-01-17T14:19:48.973Z,98329.38
2023-01-17T14:23:01.536Z,98318.19
2023-01-17T14:26:27.243Z,98323.50
2023-01-17T14:29:47.950Z,98320.75
2023-01-17T14:32:59.259Z,98312.59
2023-01-17T14:36:05.695Z,98305.97
2023-01-17T14:39:22.189Z,98296.47
2023-01-17T14:42:27.802Z,98278.47
2023-01-17T14:45:32.901Z,98284.94
2023-01-17T14:48:39.903Z,98290.69
2023-01-17T14:51:42.031Z,98287.13
2023-01-17T14:54:52.472Z,98277.16
2023-01-17T14:57:58.277Z,98266.16
2023-01-17T15:01:11.929Z,98263.84
2023-01-17T15:04:31.897Z,98267.62
2023-01-17T15:07:36.655Z,98262.78
2023-01-17T15:11:00.076Z,98277.44
2023-01-17T15:14:05.797Z,98274.19
2023-01-17T15:17:24.696Z,98283.81
2023-01-17T15:20:27.266Z,98284.97
2023-01-17T15:23:34.518Z,98277.91
2023-01-17T15:26:40.855Z,98274.47
2023-01-17T15:29:45.391Z,98262.94
2023-01-17T15:32:49.254Z,98254.19
2023-01-17T15:36:02.936Z,98261.59
2023-01-17T15:39:22.502Z,98256.25
2023-01-17T15:42:28.506Z,98251.09
2023-01-17T15:45:32.815Z,98252.94
2023-01-17T15:48:44.345Z,98239.84
2023-01-17T15:52:08.693Z,98242.59
2023-01-17T15:55:14.602Z,98221.50
2023-01-17T15:58:29.094Z,98216.94
2023-01-17T16:01:32.863Z,98215.06
2023-01-17T16:04:42.281Z,98213.28
2023-01-17T16:07:44.401Z,98208.31
2023-01-17T16:10:46.813Z,98202.09
2023-01-17T16:13:49.173Z,98201.00
2023-01-17T16:16:53.413Z,98208.50
2023-01-17T16:19:55.747Z,98204.16
2023-01-17T16:23:00.332Z,98210.34
2023-01-17T16:26:02.661Z,98204.41
2023-01-17T16:29:05.072Z,98193.94
2023-01-17T16:32:08.826Z,98193.88
2023-01-17T16:35:20.803Z,98179.59
2023-01-17T16:38:23.137Z,98183.09
2023-01-17T16:41:25.517Z,98185.63
2023-01-17T16:44:27.640Z,98185.94
2023-01-17T16:47:29.995Z,98171.84
2023-01-17T16:50:32.235Z,98165.00
